createdAt,value
2023-08-23T00:00:25.179Z,6.93
2023-08-23T00:02:56.232Z,6.70
2023-08-23T00:05:35.694Z,7.07
2023-08-23T00:08:07.153Z,7.77
2023-08-23T00:10:39.735Z,6.30
2023-08-23T00:13:09.578Z,7.40
2023-08-23T00:15:47.128Z,7.00
2023-08-23T00:18:16.312Z,6.67
2023-08-23T00:20:54.304Z,7.83
2023-08-23T00:23:31.779Z,7.60
2023-08-23T00:26:00.879Z,6.60
2023-08-23T00:28:29.815Z,6.87
2023-08-23T00:31:09.655Z,7.33
2023-08-23T00:33:42.318Z,7.80
2023-08-23T00:36:19.594Z,7.63
2023-08-23T00:39:01.737Z,6.93
2023-08-23T00:41:31.026Z,6.73
2023-08-23T00:44:00.337Z,7.13
2023-08-23T00:46:31.177Z,7.37
2023-08-23T00:49:13.876Z,7.20
2023-08-23T00:51:51.864Z,7.47
2023-08-23T00:54:27.122Z,8.57
2023-08-23T00:56:59.259Z,8.03
2023-08-23T00:59:28.240Z,7.60
2023-08-23T01:02:00.745Z,7.17
2023-08-23T01:04:31.860Z,6.83
2023-08-23T01:07:12.902Z,8.07
2023-08-23T01:09:53.886Z,7.83
2023-08-23T01:12:28.012Z,7.10
2023-08-23T01:15:01.272Z,7.97
2023-08-23T01:17:39.288Z,8.53
2023-08-23T01:20:13.961Z,8.00
2023-08-23T01:22:51.772Z,8.20
2023-08-23T01:25:25.481Z,7.90
2023-08-23T01:27:57.541Z,7.87
2023-08-23T01:30:31.833Z,8.33
2023-08-23T01:33:14.065Z,7.10
2023-08-23T01:35:54.028Z,7.83
2023-08-23T01:38:26.246Z,7.20
2023-08-23T01:41:04.722Z,8.03
2023-08-23T01:43:33.167Z,8.20
2023-08-23T01:46:10.194Z,7.73
2023-08-23T01:48:42.362Z,7.63
2023-08-23T01:51:12.084Z,7.40
2023-08-23T01:53:43.283Z,7.03
2023-08-23T01:56:25.166Z,7.50
2023-08-23T01:58:56.200Z,6.93
2023-08-23T02:01:28.319Z,6.90
2023-08-23T02:04:01.954Z,7.43
2023-08-23T02:06:33.075Z,8.30
2023-08-23T02:09:07.243Z,8.17
2023-08-23T02:11:46.004Z,8.13
2023-08-23T02:14:15.015Z,7.70
2023-08-23T02:16:44.604Z,8.33
2023-08-23T02:19:16.046Z,7.70
2023-08-23T02:21:47.024Z,7.83
2023-08-23T02:24:16.658Z,8.27
2023-08-23T02:26:49.380Z,7.73
2023-08-23T02:29:23.402Z,7.57
2023-08-23T02:34:50.313Z,7.63
2023-08-23T02:37:19.934Z,7.20
2023-08-23T02:39:52.026Z,7.43
2023-08-23T02:42:24.152Z,7.57
2023-08-23T02:44:53.230Z,8.37
2023-08-23T02:47:25.479Z,8.60
2023-08-23T02:50:03.600Z,8.00
2023-08-23T02:52:35.496Z,8.23
2023-08-23T02:55:19.958Z,8.30
2023-08-23T02:57:55.409Z,9.43
2023-08-23T03:00:33.511Z,9.00
2023-08-23T03:03:05.932Z,8.90
2023-08-23T03:05:34.385Z,8.77
2023-08-23T03:08:04.008Z,9.30
2023-08-23T03:10:35.448Z,9.00
2023-08-23T03:13:21.827Z,7.90
2023-08-23T03:15:55.161Z,8.10
2023-08-23T03:18:30.025Z,8.80
2023-08-23T03:21:09.922Z,8.50
2023-08-23T03:23:45.440Z,8.50
2023-08-23T03:26:15.087Z,9.07
2023-08-23T03:28:50.150Z,8.27
2023-08-23T03:31:22.498Z,8.63
2023-08-23T03:33:53.207Z,8.37
2023-08-23T03:36:30.167Z,9.17
2023-08-23T03:41:47.262Z,8.70
2023-08-23T03:44:24.728Z,8.87
2023-08-23T03:47:01.653Z,9.00
2023-08-23T03:49:38.979Z,9.40
2023-08-23T03:52:08.543Z,9.07
2023-08-23T03:54:40.471Z,9.30
2023-08-23T03:57:18.181Z,9.20
2023-08-23T03:59:51.112Z,9.40
2023-08-23T04:02:21.909Z,9.40
2023-08-23T04:04:52.913Z,10.50
2023-08-23T04:07:25.816Z,9.50
2023-08-23T04:09:59.227Z,9.93
2023-08-23T04:12:31.039Z,10.27
2023-08-23T04:15:16.122Z,9.30
2023-08-23T04:17:49.235Z,10.23
2023-08-23T04:20:20.264Z,9.83
2023-08-23T04:22:50.513Z,10.10
2023-08-23T04:25:22.314Z,9.23
2023-08-23T04:27:59.097Z,9.10
2023-08-23T04:30:34.706Z,8.87
2023-08-23T04:33:07.302Z,9.90
2023-08-23T04:35:36.637Z,9.47
2023-08-23T04:38:11.120Z,9.23
2023-08-23T04:40:42.835Z,10.30
2023-08-23T04:43:15.587Z,9.73
2023-08-23T04:45:50.213Z,9.60
2023-08-23T04:48:25.320Z,9.77
2023-08-23T04:50:56.974Z,10.13
2023-08-23T04:53:28.719Z,10.10
2023-08-23T04:56:06.604Z,10.27
2023-08-23T04:58:38.314Z,10.50
2023-08-23T05:01:10.875Z,10.53
2023-08-23T05:04:00.710Z,9.33
2023-08-23T05:06:32.564Z,10.17
2023-08-23T05:09:08.251Z,10.73
2023-08-23T05:11:42.778Z,9.80
2023-08-23T05:14:12.346Z,10.00
2023-08-23T05:16:42.618Z,9.00
2023-08-23T05:19:13.020Z,10.83
2023-08-23T05:21:53.950Z,9.83
2023-08-23T05:24:34.006Z,10.17
2023-08-23T05:27:06.162Z,10.40
2023-08-23T05:29:36.011Z,10.00
2023-08-23T05:32:25.248Z,9.30
2023-08-23T05:34:59.416Z,10.33
2023-08-23T05:37:31.077Z,9.20
2023-08-23T05:40:22.326Z,10.63
2023-08-23T05:42:59.545Z,10.20
2023-08-23T05:45:37.504Z,10.80
2023-08-23T05:48:16.394Z,10.33
2023-08-23T05:50:45.603Z,9.40
2023-08-23T05:53:19.917Z,8.60
2023-08-23T05:55:51.824Z,9.13
2023-08-23T05:58:25.910Z,9.77
2023-08-23T06:01:08.942Z,10.73
2023-08-23T06:03:48.334Z,9.30
2023-08-23T06:06:25.623Z,8.50
2023-08-23T06:08:57.496Z,10.40
2023-08-23T06:11:34.787Z,8.60
2023-08-23T06:14:21.039Z,9.27
2023-08-23T06:16:52.304Z,9.23
2023-08-23T06:19:27.294Z,8.43
2023-08-23T06:22:03.342Z,8.97
2023-08-23T06:24:33.565Z,9.70
2023-08-23T06:27:12.238Z,9.93
2023-08-23T06:29:45.533Z,10.03
2023-08-23T06:32:16.467Z,8.80
2023-08-23T06:34:59.640Z,9.50
2023-08-23T06:37:31.473Z,9.60
2023-08-23T06:40:14.263Z,9.20
2023-08-23T06:42:52.080Z,8.27
2023-08-23T06:45:29.043Z,9.43
2023-08-23T06:48:00.674Z,9.33
2023-08-23T06:50:41.755Z,9.23
2023-08-23T06:53:20.527Z,10.20
2023-08-23T06:55:52.278Z,8.60
2023-08-23T06:58:29.544Z,9.53
2023-08-23T07:01:06.491Z,9.07
2023-08-23T07:03:40.038Z,10.03
2023-08-23T07:06:15.446Z,8.83
2023-08-23T07:08:46.305Z,9.57
2023-08-23T07:11:31.750Z,10.00
2023-08-23T07:14:02.793Z,9.40
2023-08-23T07:16:32.740Z,9.70
2023-08-23T07:19:05.237Z,9.37
2023-08-23T07:21:37.284Z,9.13
2023-08-23T07:24:08.757Z,9.10
2023-08-23T07:26:37.287Z,9.87
2023-08-23T07:29:06.571Z,11.40
2023-08-23T07:31:39.546Z,9.80
2023-08-23T07:34:09.246Z,9.83
2023-08-23T07:36:49.870Z,9.57
2023-08-23T07:39:26.758Z,7.90
2023-08-23T07:42:04.104Z,7.50
2023-08-23T07:44:38.246Z,7.97
2023-08-23T07:47:13.864Z,9.00
2023-08-23T07:49:50.538Z,8.17
2023-08-23T07:52:32.224Z,8.40
2023-08-23T07:55:09.549Z,8.30
2023-08-23T07:57:40.660Z,8.40
2023-08-23T08:00:14.253Z,8.53
2023-08-23T08:02:42.538Z,8.40
2023-08-23T08:05:12.398Z,8.40
2023-08-23T08:10:25.099Z,8.53
2023-08-23T08:13:11.338Z,8.07
2023-08-23T08:15:49.750Z,8.60
2023-08-23T08:18:21.082Z,8.37
2023-08-23T08:20:55.468Z,9.20
2023-08-23T08:23:26.862Z,7.90
2023-08-23T08:25:57.355Z,9.13
2023-08-23T08:28:36.759Z,8.50
2023-08-23T08:31:06.593Z,8.00
2023-08-23T08:33:36.692Z,8.40
2023-08-23T08:36:16.601Z,8.50
2023-08-23T08:38:51.760Z,8.50
2023-08-23T08:41:26.920Z,9.17
2023-08-23T08:43:59.679Z,7.80
2023-08-23T08:46:32.372Z,9.63
2023-08-23T08:49:06.937Z,8.83
2023-08-23T08:51:39.856Z,8.47
2023-08-23T08:54:15.772Z,8.13
2023-08-23T08:56:50.610Z,9.30
2023-08-23T08:59:21.168Z,8.10
2023-08-23T09:01:52.760Z,8.60
2023-08-23T09:04:30.939Z,7.60
2023-08-23T09:07:08.626Z,8.00
2023-08-23T09:09:54.274Z,7.37
2023-08-23T09:12:23.693Z,8.30
2023-08-23T09:15:00.624Z,7.27
2023-08-23T09:17:41.665Z,8.23
2023-08-23T09:20:18.982Z,7.97
2023-08-23T09:22:53.302Z,6.83
2023-08-23T09:25:35.944Z,7.20
2023-08-23T09:28:05.816Z,7.70
2023-08-23T09:30:41.903Z,7.77
2023-08-23T09:33:19.898Z,7.33
2023-08-23T09:35:53.785Z,7.30
2023-08-23T09:38:23.878Z,6.77
2023-08-23T09:41:10.027Z,7.10
2023-08-23T09:43:43.492Z,6.90
2023-08-23T09:46:25.299Z,6.40
2023-08-23T09:48:59.712Z,6.57
2023-08-23T09:51:34.632Z,6.03
2023-08-23T09:54:16.217Z,6.27
2023-08-23T09:56:52.109Z,6.27
2023-08-23T09:59:28.185Z,5.90
2023-08-23T10:01:58.916Z,6.23
2023-08-23T10:04:30.965Z,6.13
2023-08-23T10:07:00.542Z,6.17
2023-08-23T10:09:29.136Z,6.67
2023-08-23T10:12:05.382Z,6.87
2023-08-23T10:14:36.142Z,6.40
2023-08-23T10:17:07.281Z,7.20
2023-08-23T10:19:39.673Z,7.57
2023-08-23T10:22:13.812Z,7.33
2023-08-23T10:24:45.244Z,7.63
2023-08-23T10:27:20.458Z,7.30
2023-08-23T10:30:02.622Z,6.87
2023-08-23T10:32:50.659Z,7.00
2023-08-23T10:35:33.123Z,6.90
2023-08-23T10:38:02.594Z,8.20
2023-08-23T10:40:32.561Z,8.33
2023-08-23T10:43:17.417Z,7.97
2023-08-23T10:46:04.161Z,7.70
2023-08-23T10:48:34.286Z,7.73
2023-08-23T10:51:08.572Z,7.37
2023-08-23T10:53:38.187Z,7.67
2023-08-23T10:56:14.274Z,7.43
2023-08-23T10:59:07.953Z,7.23
2023-08-23T11:01:39.091Z,8.20
2023-08-23T11:04:10.129Z,7.60
2023-08-23T11:06:45.016Z,7.30
2023-08-23T11:09:15.918Z,7.70
2023-08-23T11:11:49.928Z,7.60
2023-08-23T11:14:29.373Z,7.40
2023-08-23T11:17:06.691Z,7.03
2023-08-23T11:19:36.393Z,6.80
2023-08-23T11:22:14.606Z,6.80
2023-08-23T11:24:49.294Z,6.70
2023-08-23T11:27:23.473Z,7.80
2023-08-23T11:30:07.533Z,7.10
2023-08-23T11:32:38.062Z,7.23
2023-08-23T11:35:22.797Z,7.23
2023-08-23T11:37:57.994Z,7.60
2023-08-23T11:40:36.272Z,7.30
2023-08-23T11:43:22.526Z,7.10
2023-08-23T11:46:04.922Z,7.00
2023-08-23T11:48:36.164Z,8.10
2023-08-23T11:51:06.481Z,7.27
2023-08-23T11:53:44.363Z,7.20
2023-08-23T11:56:16.934Z,7.17
2023-08-23T11:58:54.790Z,6.07
2023-08-23T12:01:32.710Z,6.50
2023-08-23T12:04:01.920Z,7.17
2023-08-23T12:06:30.491Z,5.93
2023-08-23T12:09:00.182Z,6.70
2023-08-23T12:11:38.100Z,7.57
2023-08-23T12:14:15.088Z,6.90
2023-08-23T12:16:47.049Z,6.40
2023-08-23T12:19:29.630Z,5.87
2023-08-23T12:22:05.361Z,7.13
2023-08-23T12:24:39.685Z,6.63
2023-08-23T12:27:08.145Z,6.10
2023-08-23T12:29:41.808Z,6.50
2023-08-23T12:32:16.670Z,6.70
2023-08-23T12:34:52.095Z,6.27
2023-08-23T12:37:23.514Z,6.17
2023-08-23T12:39:54.584Z,7.40
2023-08-23T12:42:26.282Z,6.30
2023-08-23T12:44:55.123Z,7.50
2023-08-23T12:47:30.212Z,7.57
2023-08-23T12:50:00.333Z,6.70
2023-08-23T12:52:30.510Z,7.87
2023-08-23T12:55:05.258Z,6.43
2023-08-23T12:57:36.269Z,7.20
2023-08-23T13:00:30.282Z,7.00
2023-08-23T13:03:10.115Z,7.13
2023-08-23T13:05:42.010Z,6.60
2023-08-23T13:08:24.113Z,6.97
2023-08-23T13:10:53.230Z,6.60
2023-08-23T13:13:26.955Z,6.20
2023-08-23T13:16:04.118Z,6.20
2023-08-23T13:18:36.440Z,6.50
2023-08-23T13:21:12.141Z,6.27
2023-08-23T13:23:47.085Z,6.57
2023-08-23T13:26:26.288Z,5.70
2023-08-23T13:29:05.277Z,6.10
2023-08-23T13:31:37.689Z,6.40
2023-08-23T13:34:15.860Z,6.70
2023-08-23T13:37:05.437Z,6.10
2023-08-23T13:39:44.566Z,6.23
2023-08-23T13:42:24.138Z,7.67
2023-08-23T13:45:02.544Z,7.27
2023-08-23T13:47:36.462Z,7.00
2023-08-23T13:50:23.079Z,7.30
2023-08-23T13:53:16.350Z,7.10
2023-08-23T13:55:59.282Z,6.87
2023-08-23T13:58:28.640Z,7.37
2023-08-23T14:01:02.402Z,7.37
2023-08-23T14:03:34.888Z,7.50
2023-08-23T14:06:19.880Z,6.10
2023-08-23T14:08:55.312Z,7.70
2023-08-23T14:11:27.975Z,6.73
2023-08-23T14:14:03.171Z,6.10
2023-08-23T14:16:39.886Z,7.17
2023-08-23T14:19:10.625Z,6.70
2023-08-23T14:21:49.914Z,7.13
2023-08-23T14:24:21.744Z,5.40
2023-08-23T14:26:58.466Z,6.10
2023-08-23T14:29:29.530Z,6.40
2023-08-23T14:32:04.090Z,7.20
2023-08-23T14:34:37.189Z,6.20
2023-08-23T14:37:13.145Z,6.30
2023-08-23T14:39:45.373Z,6.23
2023-08-23T14:42:14.073Z,6.70
2023-08-23T14:44:54.340Z,6.00
2023-08-23T14:47:26.710Z,6.93
2023-08-23T14:49:59.402Z,6.50
2023-08-23T14:52:35.495Z,7.07
2023-08-23T14:55:08.107Z,6.60
2023-08-23T14:57:37.619Z,6.33
2023-08-23T15:00:10.921Z,6.87
2023-08-23T15:02:42.181Z,7.43
2023-08-23T15:05:19.527Z,7.23
2023-08-23T15:07:51.389Z,7.27
2023-08-23T15:10:29.630Z,6.63
2023-08-23T15:13:00.451Z,6.50
2023-08-23T15:15:34.822Z,5.57
2023-08-23T15:18:05.884Z,6.10
2023-08-23T15:20:42.153Z,5.97
2023-08-23T15:23:12.473Z,6.27
2023-08-23T15:25:42.050Z,7.60
2023-08-23T15:28:10.513Z,6.30
2023-08-23T15:30:42.564Z,6.23
2023-08-23T15:33:16.652Z,5.93
2023-08-23T15:35:46.367Z,5.97
2023-08-23T15:38:25.108Z,5.47
2023-08-23T15:40:57.138Z,6.20
2023-08-23T15:43:29.920Z,5.10
2023-08-23T15:46:01.468Z,5.77
2023-08-23T15:48:30.379Z,4.73
2023-08-23T15:51:08.361Z,5.50
2023-08-23T15:53:44.244Z,5.37
2023-08-23T15:56:20.524Z,5.33
2023-08-23T15:59:03.242Z,4.90
2023-08-23T16:01:46.646Z,4.87
2023-08-23T16:04:24.836Z,4.70
2023-08-23T16:07:08.130Z,4.83
2023-08-23T16:09:45.125Z,4.60
2023-08-23T16:12:24.879Z,4.87
2023-08-23T16:15:05.163Z,4.77
2023-08-23T16:17:44.979Z,4.70
2023-08-23T16:20:16.186Z,5.20
2023-08-23T16:22:49.613Z,6.10
2023-08-23T16:25:39.044Z,4.47
2023-08-23T16:28:21.555Z,4.40
2023-08-23T16:31:05.643Z,4.37
2023-08-23T16:33:49.301Z,5.20
2023-08-23T16:36:38.291Z,5.10
2023-08-23T16:39:23.197Z,4.93
2023-08-23T16:42:14.827Z,4.60
2023-08-23T16:44:59.258Z,5.40
2023-08-23T16:47:32.668Z,4.90
2023-08-23T16:50:07.164Z,5.10
2023-08-23T16:52:52.115Z,5.47
2023-08-23T16:55:41.946Z,4.73
2023-08-23T16:58:32.354Z,5.00
2023-08-23T17:01:10.063Z,4.80
2023-08-23T17:03:53.662Z,5.17
2023-08-23T17:06:27.724Z,4.63
2023-08-23T17:09:10.382Z,4.93
2023-08-23T17:11:52.619Z,4.83
2023-08-23T17:14:28.830Z,4.93
2023-08-23T17:17:05.564Z,4.90
2023-08-23T17:19:39.924Z,4.80
2023-08-23T17:22:24.684Z,4.50
2023-08-23T17:24:56.066Z,5.57
2023-08-23T17:27:39.188Z,5.03
2023-08-23T17:30:38.421Z,5.27
2023-08-23T17:33:15.732Z,4.70
2023-08-23T17:35:59.616Z,5.10
2023-08-23T17:38:38.409Z,5.50
2023-08-23T17:41:23.496Z,5.50
2023-08-23T17:44:01.127Z,5.37
2023-08-23T17:46:48.437Z,5.40
2023-08-23T17:49:25.734Z,6.33
2023-08-23T17:51:58.552Z,6.73
2023-08-23T17:54:38.161Z,5.60
2023-08-23T17:57:11.089Z,6.17
2023-08-23T17:59:46.211Z,5.80
2023-08-23T18:02:41.507Z,5.57
2023-08-23T18:05:18.064Z,5.70
2023-08-23T18:07:55.154Z,5.70
2023-08-23T18:10:27.120Z,5.17
2023-08-23T18:13:09.110Z,5.30
2023-08-23T18:15:43.667Z,6.27
2023-08-23T18:18:36.592Z,5.70
2023-08-23T18:21:21.725Z,5.83
2023-08-23T18:23:59.059Z,5.63
2023-08-23T18:26:37.572Z,6.07
2023-08-23T18:29:14.390Z,6.63
2023-08-23T18:31:55.573Z,5.80
2023-08-23T18:34:42.547Z,6.17
2023-08-23T18:37:30.143Z,6.47
2023-08-23T18:40:18.648Z,5.13
2023-08-23T18:42:59.100Z,5.33
2023-08-23T18:45:39.000Z,5.87
2023-08-23T18:48:15.315Z,5.70
2023-08-23T18:51:35.647Z,5.90
2023-08-23T18:54:16.821Z,6.20
2023-08-23T18:56:50.922Z,5.80
2023-08-23T18:59:23.694Z,6.37
2023-08-23T19:01:57.180Z,5.63
2023-08-23T19:04:34.546Z,6.30
2023-08-23T19:07:35.492Z,5.80
2023-08-23T19:10:21.858Z,6.50
2023-08-23T19:13:04.351Z,6.03
2023-08-23T19:15:56.388Z,6.73
2023-08-23T19:18:44.199Z,6.37
2023-08-23T19:21:16.345Z,6.40
2023-08-23T19:24:13.265Z,6.43
2023-08-23T19:26:47.298Z,5.90
2023-08-23T19:29:23.444Z,6.23
2023-08-23T19:32:09.066Z,6.03
2023-08-23T19:34:51.393Z,6.10
2023-08-23T19:37:25.121Z,5.60
2023-08-23T19:39:58.935Z,5.80
2023-08-23T19:42:31.393Z,6.37
2023-08-23T19:45:21.447Z,6.20
2023-08-23T19:48:17.106Z,6.20
2023-08-23T19:51:06.867Z,5.97
2023-08-23T19:53:37.773Z,6.50
2023-08-23T19:56:18.968Z,6.50
2023-08-23T19:59:06.038Z,7.00
2023-08-23T20:01:38.400Z,6.70
2023-08-23T20:04:11.928Z,6.30
2023-08-23T20:06:45.303Z,6.37
2023-08-23T20:09:20.860Z,5.70
2023-08-23T20:11:57.216Z,6.93
2023-08-23T20:14:32.810Z,6.40
2023-08-23T20:17:09.601Z,6.67
2023-08-23T20:19:42.649Z,5.67
2023-08-23T20:22:14.166Z,6.53
2023-08-23T20:25:05.200Z,6.60
2023-08-23T20:27:52.779Z,6.77
2023-08-23T20:30:39.238Z,5.87
2023-08-23T20:33:19.376Z,6.70
2023-08-23T20:35:55.760Z,6.00
2023-08-23T20:38:28.850Z,7.30
2023-08-23T20:41:10.950Z,7.00
2023-08-23T20:43:50.345Z,6.70
2023-08-23T20:46:32.235Z,6.70
2023-08-23T20:49:12.090Z,6.40
2023-08-23T20:51:51.740Z,5.80
2023-08-23T20:54:25.937Z,6.83
2023-08-23T20:56:58.841Z,6.67
2023-08-23T20:59:53.045Z,7.07
2023-08-23T21:02:23.601Z,6.53
2023-08-23T21:04:54.610Z,6.60
2023-08-23T21:07:34.835Z,6.87
2023-08-23T21:10:15.684Z,6.77
2023-08-23T21:12:49.222Z,6.63
2023-08-23T21:15:25.261Z,7.20
2023-08-23T21:17:58.853Z,6.20
2023-08-23T21:20:29.321Z,6.57
2023-08-23T21:23:01.252Z,5.67
2023-08-23T21:25:29.663Z,7.20
2023-08-23T21:28:00.342Z,6.73
2023-08-23T21:30:32.690Z,5.80
2023-08-23T21:33:09.829Z,6.23
2023-08-23T21:35:40.395Z,6.10
2023-08-23T21:38:10.215Z,6.63
2023-08-23T21:40:39.866Z,7.00
2023-08-23T21:43:09.261Z,7.10
2023-08-23T21:45:52.095Z,7.10
2023-08-23T21:48:26.228Z,6.87
2023-08-23T21:50:58.377Z,6.47
2023-08-23T21:53:37.228Z,6.53
2023-08-23T21:56:07.429Z,6.70
2023-08-23T21:58:38.978Z,6.13
2023-08-23T22:01:10.492Z,6.17
2023-08-23T22:03:43.601Z,6.73
2023-08-23T22:06:18.920Z,6.40
2023-08-23T22:08:51.957Z,5.93
2023-08-23T22:11:23.555Z,6.37
2023-08-23T22:13:55.801Z,6.40
2023-08-23T22:16:32.624Z,6.83
2023-08-23T22:19:09.431Z,6.07
2023-08-23T22:21:40.559Z,6.90
2023-08-23T22:24:12.097Z,6.63
2023-08-23T22:26:40.799Z,6.73
2023-08-23T22:29:09.060Z,6.00
2023-08-23T22:31:40.432Z,6.27
2023-08-23T22:34:15.985Z,7.00
2023-08-23T22:36:49.194Z,6.77
2023-08-23T22:39:26.658Z,6.87
2023-08-23T22:42:03.088Z,6.60
2023-08-23T22:44:39.155Z,6.30
2023-08-23T22:47:24.142Z,6.57
2023-08-23T22:49:58.310Z,6.27
2023-08-23T22:52:29.546Z,6.40
2023-08-23T22:55:11.940Z,6.33
2023-08-23T22:57:45.844Z,5.87
2023-08-23T23:00:29.418Z,5.60
2023-08-23T23:03:10.683Z,6.60
2023-08-23T23:05:50.574Z,6.80
2023-08-23T23:08:21.594Z,6.50
2023-08-23T23:10:55.441Z,6.20
2023-08-23T23:13:24.238Z,7.03
2023-08-23T23:15:55.239Z,6.40
2023-08-23T23:18:27.561Z,7.00
2023-08-23T23:21:05.443Z,6.63
2023-08-23T23:23:42.588Z,6.10
2023-08-23T23:26:16.366Z,6.20
2023-08-23T23:28:56.188Z,6.43
2023-08-23T23:31:27.203Z,6.60
2023-08-23T23:34:09.650Z,5.73
2023-08-23T23:36:40.211Z,6.03
2023-08-23T23:39:09.592Z,6.70
2023-08-23T23:41:41.266Z,5.43
2023-08-23T23:44:10.829Z,6.70
2023-08-23T23:46:42.050Z,6.40
2023-08-23T23:49:27.303Z,6.27
2023-08-23T23:51:58.052Z,6.40
2023-08-23T23:54:28.358Z,6.87
2023-08-23T23:57:04.615Z,6.80
2023-08-23T23:59:34.350Z,7.43
